Travisville, Indiana
Current Conditions -  °F | °C
As of 5:15 AM on Tuesday 21 Oct 2014 (Local Time) from KHHG Reporting Station
Overcast Overcast  
Wind Chill: 46°   Ceiling: 4900
Heat Index: 48°   Visibility: 10mi
Dew Point: 43°   Wind: 5mph
Humidity: 83%   Direction: 320°NW
Pressure: 29.96"   Gusts: NA
Location:  40.7175°N, 85.1549°W
Report Text: KHHG 210915Z AUTO 32004KT 10SM OVC049 09/06 A2996 RMK AO2 T00870060
Loading
Personal Weather Stations






























Interactive Weather Map
Tropical Storm Tracking
New forecast layout! Learn more

10-Day Weather Forecast

Advertisements
Track Severe Weather on mobile